createdAt,value
2019-03-05T00:00:22.071Z,67.62
2019-03-05T00:03:09.648Z,67.63
2019-03-05T00:05:56.986Z,68.16
2019-03-05T00:08:44.498Z,68.01
2019-03-05T00:11:31.921Z,68.57
2019-03-05T00:14:20.580Z,68.19
2019-03-05T00:17:07.999Z,69.23
2019-03-05T00:19:55.583Z,68.64
2019-03-05T00:22:43.155Z,68.01
2019-03-05T00:25:33.443Z,67.83
2019-03-05T00:28:30.070Z,67.24
2019-03-05T00:31:23.074Z,68.69
2019-03-05T00:34:19.700Z,70.03
2019-03-05T00:37:10.072Z,67.75
2019-03-05T00:40:00.510Z,66.73
2019-03-05T00:43:05.808Z,66.07
2019-03-05T00:45:56.511Z,67.68
2019-03-05T00:48:52.539Z,67.77
2019-03-05T00:51:42.930Z,69.09
2019-03-05T00:54:51.452Z,69.74
2019-03-05T00:57:55.145Z,70.83
2019-03-05T01:00:48.898Z,72.22
2019-03-05T01:04:13.817Z,71.12
2019-03-05T01:07:01.560Z,70.88
2019-03-05T01:09:48.881Z,71.57
2019-03-05T01:12:36.412Z,69.99
2019-03-05T01:15:23.833Z,69.81
2019-03-05T01:18:11.669Z,68.72
2019-03-05T01:20:59.197Z,67.83
2019-03-05T01:23:46.868Z,67.55
2019-03-05T01:26:34.008Z,66.87
2019-03-05T01:29:21.570Z,66.04
2019-03-05T01:32:10.555Z,67.12
2019-03-05T01:35:02.668Z,66.63
2019-03-05T01:37:50.102Z,66.94
2019-03-05T01:40:38.033Z,67.11
2019-03-05T01:43:25.354Z,66.10
2019-03-05T01:46:12.739Z,65.45
2019-03-05T01:49:00.398Z,67.46
2019-03-05T01:51:48.132Z,66.84
2019-03-05T01:54:35.758Z,66.05
2019-03-05T01:57:23.538Z,65.53
2019-03-05T02:00:12.248Z,66.56
2019-03-05T02:02:59.771Z,66.58
2019-03-05T02:05:47.374Z,66.22
2019-03-05T02:08:34.621Z,65.34
2019-03-05T02:11:22.353Z,64.29
2019-03-05T02:14:09.986Z,64.84
2019-03-05T02:16:57.202Z,64.12
2019-03-05T02:19:46.430Z,65.07
2019-03-05T02:22:34.918Z,64.61
2019-03-05T02:25:34.523Z,64.55
2019-03-05T02:28:52.773Z,64.22
2019-03-05T02:32:12.153Z,63.93
2019-03-05T02:35:05.613Z,64.72
2019-03-05T02:38:05.896Z,63.56
2019-03-05T02:40:59.300Z,65.10
2019-03-05T02:44:20.273Z,64.77
2019-03-05T02:47:13.793Z,64.68
2019-03-05T02:50:22.605Z,65.20
2019-03-05T02:53:22.470Z,64.05
2019-03-05T02:56:29.828Z,63.64
2019-03-05T02:59:16.415Z,62.17
2019-03-05T03:02:23.911Z,63.34
2019-03-05T03:05:16.078Z,63.84
2019-03-05T03:08:03.025Z,64.54
2019-03-05T03:10:50.687Z,64.12
2019-03-05T03:13:38.249Z,62.26
2019-03-05T03:16:25.641Z,62.11
2019-03-05T03:19:13.069Z,62.73
2019-03-05T03:22:00.602Z,62.24
2019-03-05T03:24:48.026Z,63.80
2019-03-05T03:27:35.642Z,63.72
2019-03-05T03:30:23.494Z,64.22
2019-03-05T03:33:11.051Z,64.25
2019-03-05T03:35:58.436Z,62.63
2019-03-05T03:38:45.850Z,61.71
2019-03-05T03:41:33.457Z,62.00
2019-03-05T03:44:20.700Z,62.94
2019-03-05T03:47:07.842Z,63.36
2019-03-05T03:49:55.751Z,62.57
2019-03-05T03:52:43.388Z,62.04
2019-03-05T03:55:30.907Z,63.28
2019-03-05T03:58:18.433Z,64.11
2019-03-05T04:01:07.294Z,65.93
2019-03-05T04:03:54.659Z,65.43
2019-03-05T04:06:42.140Z,66.36
2019-03-05T04:09:29.769Z,67.73
2019-03-05T04:12:17.196Z,68.01
2019-03-05T04:15:06.993Z,67.20
2019-03-05T04:17:54.324Z,66.63
2019-03-05T04:20:43.458Z,66.02
2019-03-05T04:23:30.734Z,66.20
2019-03-05T04:26:19.742Z,67.29
2019-03-05T04:29:07.272Z,66.66
2019-03-05T04:31:54.853Z,67.50
2019-03-05T04:34:42.232Z,66.86
2019-03-05T04:37:30.152Z,67.01
2019-03-05T04:40:18.000Z,67.93
2019-03-05T04:43:05.939Z,69.43
2019-03-05T04:45:57.767Z,70.49
2019-03-05T04:48:46.935Z,70.87
2019-03-05T04:51:36.299Z,69.86
2019-03-05T04:54:24.135Z,69.31
2019-03-05T04:57:11.560Z,68.66
2019-03-05T04:59:58.984Z,67.89
2019-03-05T05:02:46.609Z,67.16
2019-03-05T05:05:33.933Z,66.83
2019-03-05T05:08:21.664Z,67.26
2019-03-05T05:11:09.300Z,67.40
2019-03-05T05:13:57.435Z,67.77
2019-03-05T05:16:45.064Z,67.08
2019-03-05T05:19:32.599Z,66.96
2019-03-05T05:22:19.807Z,66.50
2019-03-05T05:25:07.948Z,65.95
2019-03-05T05:27:55.581Z,67.54
2019-03-05T05:30:43.314Z,66.56
2019-03-05T05:33:31.148Z,65.53
2019-03-05T05:36:19.799Z,65.72
2019-03-05T05:39:10.396Z,65.42
2019-03-05T05:41:57.929Z,66.26
2019-03-05T05:44:45.242Z,66.21
2019-03-05T05:47:32.569Z,66.68
2019-03-05T05:50:19.684Z,68.25
2019-03-05T05:53:07.004Z,67.68
2019-03-05T05:55:54.427Z,67.63
2019-03-05T05:58:41.983Z,67.24
2019-03-05T06:01:29.583Z,66.47
2019-03-05T06:04:17.158Z,65.71
2019-03-05T06:07:05.050Z,65.76
2019-03-05T06:09:52.571Z,66.91
2019-03-05T06:12:39.796Z,65.79
2019-03-05T06:15:27.394Z,66.11
2019-03-05T06:18:15.231Z,66.86
2019-03-05T06:21:02.448Z,66.85
2019-03-05T06:23:49.902Z,66.10
2019-03-05T06:26:37.526Z,65.80
2019-03-05T06:29:24.953Z,65.89
2019-03-05T06:32:12.175Z,65.53
2019-03-05T06:34:59.374Z,65.04
2019-03-05T06:37:47.009Z,65.60
2019-03-05T06:40:34.221Z,65.92
2019-03-05T06:43:21.868Z,66.10
2019-03-05T06:46:09.172Z,66.00
2019-03-05T06:48:56.595Z,65.88
2019-03-05T06:51:44.328Z,66.08
2019-03-05T06:54:31.648Z,65.65
2019-03-05T06:57:19.484Z,65.55
2019-03-05T07:00:29.852Z,64.95
2019-03-05T07:03:17.478Z,66.10
2019-03-05T07:06:37.060Z,66.65
2019-03-05T07:09:45.471Z,66.59
2019-03-05T07:12:36.487Z,65.66
2019-03-05T07:15:45.097Z,65.83
2019-03-05T07:18:37.810Z,66.88
2019-03-05T07:21:40.033Z,65.42
2019-03-05T07:24:43.004Z,66.35
2019-03-05T07:27:30.533Z,66.48
2019-03-05T07:30:18.466Z,66.91
2019-03-05T07:33:06.200Z,65.30
2019-03-05T07:35:53.626Z,65.01
2019-03-05T07:38:41.457Z,65.32
2019-03-05T07:41:28.676Z,65.26
2019-03-05T07:44:16.409Z,64.44
2019-03-05T07:47:04.651Z,64.55
2019-03-05T07:49:51.690Z,65.22
2019-03-05T07:52:39.089Z,65.43
2019-03-05T07:55:26.516Z,65.71
2019-03-05T07:58:13.732Z,65.38
2019-03-05T08:01:01.694Z,64.17
2019-03-05T08:03:49.300Z,63.64
2019-03-05T08:06:36.725Z,64.84
2019-03-05T08:09:32.241Z,65.16
2019-03-05T08:12:26.011Z,65.11
2019-03-05T08:15:22.649Z,65.52
2019-03-05T08:18:09.973Z,64.78
2019-03-05T08:20:58.059Z,63.85
2019-03-05T08:23:48.375Z,62.98
2019-03-05T08:26:34.905Z,62.77
2019-03-05T08:29:22.431Z,62.66
2019-03-05T08:32:10.165Z,63.39
2019-03-05T08:34:57.793Z,62.44
2019-03-05T08:37:45.027Z,63.20
2019-03-05T08:40:32.436Z,62.83
2019-03-05T08:43:21.189Z,62.13
2019-03-05T08:46:08.716Z,62.40
2019-03-05T08:48:55.940Z,63.21
2019-03-05T08:51:43.389Z,63.94
2019-03-05T08:54:30.796Z,63.64
2019-03-05T08:57:18.107Z,64.31
2019-03-05T09:00:22.837Z,64.48
2019-03-05T09:03:10.166Z,65.91
2019-03-05T09:05:58.012Z,65.06
2019-03-05T09:08:45.624Z,66.72
2019-03-05T09:11:32.949Z,66.33
2019-03-05T09:14:20.569Z,67.23
2019-03-05T09:17:07.997Z,66.60
2019-03-05T09:19:54.910Z,67.95
2019-03-05T09:22:42.025Z,66.72
2019-03-05T09:25:29.760Z,64.98
2019-03-05T09:28:17.390Z,64.59
2019-03-05T09:31:05.219Z,65.41
2019-03-05T09:33:52.029Z,65.09
2019-03-05T09:36:50.486Z,64.63
2019-03-05T09:39:30.060Z,64.29
2019-03-05T09:42:17.798Z,64.57
2019-03-05T09:45:06.745Z,65.91
2019-03-05T09:47:53.734Z,65.16
2019-03-05T09:50:40.565Z,66.03
2019-03-05T09:53:28.326Z,65.99
2019-03-05T09:56:16.130Z,65.19
2019-03-05T09:59:05.538Z,64.94
2019-03-05T10:01:54.262Z,66.09
2019-03-05T10:04:41.681Z,66.41
2019-03-05T10:07:29.000Z,65.37
2019-03-05T10:10:21.651Z,66.04
2019-03-05T10:13:09.073Z,67.11
2019-03-05T10:15:56.152Z,66.95
2019-03-05T10:18:43.412Z,66.44
2019-03-05T10:21:31.141Z,66.94
2019-03-05T10:24:18.673Z,66.90
2019-03-05T10:27:06.193Z,68.23
2019-03-05T10:29:53.820Z,66.53
2019-03-05T10:32:41.557Z,66.10
2019-03-05T10:35:28.691Z,65.58
2019-03-05T10:38:17.280Z,65.37
2019-03-05T10:41:04.951Z,65.69
2019-03-05T10:43:52.514Z,65.84
2019-03-05T10:46:39.902Z,65.78
2019-03-05T10:49:27.443Z,66.13
2019-03-05T10:52:14.632Z,66.33
2019-03-05T10:55:01.969Z,65.57
2019-03-05T10:57:49.598Z,65.08
2019-03-05T11:00:46.237Z,67.48
2019-03-05T11:03:33.721Z,67.96
2019-03-05T11:06:21.192Z,67.94
2019-03-05T11:09:09.142Z,67.74
2019-03-05T11:11:56.658Z,67.19
2019-03-05T11:14:44.998Z,68.00
2019-03-05T11:17:34.114Z,68.53
2019-03-05T11:20:21.690Z,69.35
2019-03-05T11:23:11.533Z,71.04
2019-03-05T11:25:58.277Z,71.07
2019-03-05T11:28:46.114Z,70.08
2019-03-05T11:31:33.124Z,69.67
2019-03-05T11:34:20.553Z,69.81
2019-03-05T11:37:08.077Z,68.98
2019-03-05T11:39:55.706Z,67.68
2019-03-05T11:42:42.721Z,67.37
2019-03-05T11:45:30.553Z,66.55
2019-03-05T11:48:18.391Z,66.04
2019-03-05T11:51:05.916Z,66.08
2019-03-05T11:53:53.952Z,65.42
2019-03-05T11:56:41.481Z,65.66
2019-03-05T11:59:28.579Z,65.64
2019-03-05T12:02:21.654Z,66.80
2019-03-05T12:05:12.388Z,67.52
2019-03-05T12:07:59.798Z,66.41
2019-03-05T12:10:47.305Z,66.54
2019-03-05T12:13:35.246Z,65.40
2019-03-05T12:16:22.670Z,64.44
2019-03-05T12:19:09.989Z,63.78
2019-03-05T12:21:57.003Z,63.56
2019-03-05T12:24:44.125Z,62.31
2019-03-05T12:27:31.645Z,62.70
2019-03-05T12:30:27.977Z,62.23
2019-03-05T12:33:15.502Z,62.50
2019-03-05T12:36:02.830Z,62.44
2019-03-05T12:38:49.945Z,60.29
2019-03-05T12:41:37.572Z,60.38
2019-03-05T12:44:24.786Z,60.37
2019-03-05T12:47:12.016Z,60.05
2019-03-05T12:49:59.528Z,59.52
2019-03-05T12:52:47.304Z,59.33
2019-03-05T12:55:35.715Z,59.92
2019-03-05T12:58:23.036Z,61.39
2019-03-05T13:01:09.948Z,60.81
2019-03-05T13:03:57.579Z,60.21
2019-03-05T13:06:45.106Z,59.85
2019-03-05T13:09:32.250Z,60.03
2019-03-05T13:12:19.953Z,61.54
2019-03-05T13:15:10.779Z,60.50
2019-03-05T13:17:58.044Z,59.61
2019-03-05T13:20:45.388Z,57.97
2019-03-05T13:23:32.639Z,58.04
2019-03-05T13:26:20.350Z,58.19
2019-03-05T13:29:07.878Z,59.05
2019-03-05T13:31:55.712Z,59.45
2019-03-05T13:34:43.034Z,58.38
2019-03-05T13:37:30.359Z,55.27
2019-03-05T13:40:23.413Z,54.41
2019-03-05T13:43:10.937Z,55.35
2019-03-05T13:45:58.260Z,55.60
2019-03-05T13:49:05.548Z,55.66
2019-03-05T13:52:14.377Z,56.34
2019-03-05T13:55:13.829Z,55.33
2019-03-05T13:58:22.400Z,55.74
2019-03-05T14:01:11.347Z,56.25
2019-03-05T14:04:01.139Z,54.05
2019-03-05T14:06:57.244Z,52.47
2019-03-05T14:09:43.056Z,54.05
2019-03-05T14:12:30.476Z,53.61
2019-03-05T14:15:19.295Z,53.50
2019-03-05T14:18:06.474Z,54.18
2019-03-05T14:20:53.647Z,53.88
2019-03-05T14:23:41.348Z,53.96
2019-03-05T14:26:29.567Z,53.34
2019-03-05T14:29:17.140Z,53.03
2019-03-05T14:32:04.700Z,53.64
2019-03-05T14:34:58.703Z,53.65
2019-03-05T14:37:46.985Z,55.12
2019-03-05T14:40:34.406Z,55.13
2019-03-05T14:43:21.685Z,55.60
2019-03-05T14:46:09.102Z,55.52
2019-03-05T14:48:56.534Z,56.65
2019-03-05T14:51:43.895Z,55.64
2019-03-05T14:54:31.484Z,55.59
2019-03-05T14:57:18.853Z,54.62
2019-03-05T15:00:12.579Z,54.39
2019-03-05T15:02:59.800Z,53.88
2019-03-05T15:05:47.456Z,52.87
2019-03-05T15:08:35.142Z,52.59
2019-03-05T15:11:22.499Z,52.54
2019-03-05T15:14:10.415Z,52.77
2019-03-05T15:16:57.913Z,52.87
2019-03-05T15:19:45.462Z,51.90
2019-03-05T15:22:32.878Z,51.86
2019-03-05T15:25:20.437Z,50.64
2019-03-05T15:28:08.274Z,50.81
2019-03-05T15:30:55.608Z,50.01
2019-03-05T15:33:43.066Z,50.46
2019-03-05T15:36:30.509Z,50.55
2019-03-05T15:39:17.490Z,50.13
2019-03-05T15:42:05.380Z,50.70
2019-03-05T15:44:52.695Z,51.22
2019-03-05T15:47:42.655Z,50.92
2019-03-05T15:50:31.167Z,50.57
2019-03-05T15:53:18.558Z,50.45
2019-03-05T15:56:06.472Z,50.85
2019-03-05T15:58:53.282Z,51.00
2019-03-05T16:01:41.119Z,51.28
2019-03-05T16:04:28.176Z,51.62
2019-03-05T16:07:16.379Z,51.64
2019-03-05T16:10:05.019Z,51.94
2019-03-05T16:12:52.449Z,51.99
2019-03-05T16:15:41.873Z,52.69
2019-03-05T16:18:29.084Z,53.59
2019-03-05T16:21:16.674Z,54.19
2019-03-05T16:24:04.269Z,54.09
2019-03-05T16:26:51.824Z,54.84
2019-03-05T16:29:39.049Z,54.96
2019-03-05T16:32:28.289Z,55.56
2019-03-05T16:35:33.454Z,55.57
2019-03-05T16:38:25.379Z,54.75
2019-03-05T16:41:20.498Z,54.87
2019-03-05T16:44:08.229Z,55.55
2019-03-05T16:47:05.983Z,55.75
2019-03-05T16:50:00.601Z,56.13
2019-03-05T16:52:52.613Z,56.58
2019-03-05T16:55:41.673Z,57.59
2019-03-05T16:58:36.363Z,57.83
2019-03-05T17:01:31.367Z,58.08
2019-03-05T17:04:26.660Z,58.19
2019-03-05T17:07:21.471Z,59.02
2019-03-05T17:10:20.882Z,58.59
2019-03-05T17:13:08.707Z,59.20
2019-03-05T17:15:55.927Z,58.63
2019-03-05T17:18:42.946Z,58.54
2019-03-05T17:21:30.369Z,58.92
2019-03-05T17:24:19.326Z,58.76
2019-03-05T17:27:06.955Z,59.63
2019-03-05T17:29:54.174Z,60.01
2019-03-05T17:32:42.316Z,60.61
2019-03-05T17:35:29.572Z,60.44
2019-03-05T17:38:17.267Z,60.74
2019-03-05T17:41:05.001Z,60.98
2019-03-05T17:43:52.733Z,61.09
2019-03-05T17:46:39.645Z,61.35
2019-03-05T17:49:27.071Z,60.74
2019-03-05T17:52:15.001Z,60.34
2019-03-05T17:55:02.530Z,60.72
2019-03-05T17:57:49.645Z,61.62
2019-03-05T18:00:41.341Z,60.83
2019-03-05T18:03:28.833Z,60.07
2019-03-05T18:06:16.749Z,60.88
2019-03-05T18:09:05.444Z,61.08
2019-03-05T18:11:53.629Z,61.07
2019-03-05T18:14:41.871Z,60.62
2019-03-05T18:17:30.184Z,59.74
2019-03-05T18:20:19.524Z,59.54
2019-03-05T18:23:07.063Z,59.63
2019-03-05T18:25:53.926Z,60.10
2019-03-05T18:28:41.461Z,59.23
2019-03-05T18:31:29.083Z,58.69
2019-03-05T18:34:16.808Z,59.05
2019-03-05T18:37:04.405Z,58.68
2019-03-05T18:39:51.658Z,59.44
2019-03-05T18:42:39.217Z,59.29
2019-03-05T18:45:34.596Z,59.24
2019-03-05T18:48:22.020Z,59.36
2019-03-05T18:51:09.726Z,59.28
2019-03-05T18:53:56.705Z,59.31
2019-03-05T18:56:43.971Z,60.08
2019-03-05T18:59:30.975Z,60.06
2019-03-05T19:02:18.627Z,60.32
2019-03-05T19:05:26.534Z,60.42
2019-03-05T19:08:14.365Z,59.46
2019-03-05T19:11:01.484Z,60.13
2019-03-05T19:13:49.318Z,60.89
2019-03-05T19:16:36.539Z,60.75
2019-03-05T19:19:23.857Z,60.04
2019-03-05T19:22:11.156Z,59.57
2019-03-05T19:24:58.505Z,59.31
2019-03-05T19:27:46.948Z,59.51
2019-03-05T19:30:40.729Z,60.70
2019-03-05T19:33:28.247Z,59.80
2019-03-05T19:36:15.365Z,59.68
2019-03-05T19:39:04.098Z,59.49
2019-03-05T19:41:56.071Z,59.00
2019-03-05T19:44:39.910Z,59.71
2019-03-05T19:47:27.525Z,59.13
2019-03-05T19:50:17.469Z,58.87
2019-03-05T19:53:05.034Z,59.47
2019-03-05T19:55:52.455Z,59.12
2019-03-05T19:58:42.101Z,59.25
2019-03-05T20:01:31.938Z,60.32
2019-03-05T20:04:19.746Z,60.87
2019-03-05T20:07:07.374Z,61.03
2019-03-05T20:09:54.901Z,60.35
2019-03-05T20:12:42.324Z,60.11
2019-03-05T20:15:30.164Z,60.38
2019-03-05T20:18:17.892Z,60.58
2019-03-05T20:21:05.215Z,60.05
2019-03-05T20:23:52.327Z,59.95
2019-03-05T20:26:40.059Z,59.51
2019-03-05T20:29:28.178Z,59.32
2019-03-05T20:32:16.139Z,59.16
2019-03-05T20:35:03.563Z,59.29
2019-03-05T20:37:51.503Z,59.31
2019-03-05T20:40:39.432Z,59.55
2019-03-05T20:43:26.753Z,59.71
2019-03-05T20:46:19.092Z,60.79
2019-03-05T20:49:06.619Z,61.28
2019-03-05T20:51:54.149Z,61.12
2019-03-05T20:54:41.983Z,61.92
2019-03-05T20:57:29.608Z,62.51
2019-03-05T21:00:24.450Z,61.98
2019-03-05T21:03:13.363Z,62.20
2019-03-05T21:06:02.838Z,61.50
2019-03-05T21:08:50.773Z,62.47
2019-03-05T21:11:38.608Z,62.76
2019-03-05T21:14:26.547Z,63.07
2019-03-05T21:17:14.787Z,62.77
2019-03-05T21:20:02.212Z,62.82
2019-03-05T21:22:49.329Z,62.49
2019-03-05T21:25:36.705Z,62.62
2019-03-05T21:28:24.074Z,63.16
2019-03-05T21:31:11.499Z,63.74
2019-03-05T21:33:58.930Z,63.27
2019-03-05T21:36:46.145Z,62.65
2019-03-05T21:39:34.183Z,62.31
2019-03-05T21:42:21.408Z,62.21
2019-03-05T21:45:15.175Z,62.40
2019-03-05T21:48:02.706Z,62.27
2019-03-05T21:50:50.536Z,62.07
2019-03-05T21:53:38.167Z,62.28
2019-03-05T21:56:25.689Z,62.38
2019-03-05T21:59:13.359Z,62.30
2019-03-05T22:02:00.841Z,62.12
2019-03-05T22:04:48.267Z,62.06
2019-03-05T22:07:35.691Z,62.53
2019-03-05T22:10:23.426Z,63.42
2019-03-05T22:13:11.054Z,62.97
2019-03-05T22:15:58.479Z,62.73
2019-03-05T22:18:46.110Z,62.39
2019-03-05T22:21:33.447Z,63.87
2019-03-05T22:24:21.000Z,63.05
2019-03-05T22:27:08.795Z,62.63
2019-03-05T22:29:56.521Z,62.29
2019-03-05T22:32:44.046Z,62.11
2019-03-05T22:35:32.188Z,62.22
2019-03-05T22:38:19.710Z,62.31
2019-03-05T22:41:07.238Z,62.65
2019-03-05T22:43:54.765Z,62.29
2019-03-05T22:46:42.293Z,62.17
2019-03-05T22:49:29.720Z,62.00
2019-03-05T22:52:17.036Z,62.38
2019-03-05T22:55:06.073Z,62.06
2019-03-05T22:57:53.726Z,62.87
2019-03-05T23:00:51.434Z,64.99
2019-03-05T23:03:40.231Z,64.64
2019-03-05T23:06:27.907Z,64.01
2019-03-05T23:09:17.146Z,64.01
2019-03-05T23:12:05.389Z,64.09
2019-03-05T23:14:53.028Z,64.02
2019-03-05T23:17:40.648Z,63.87
2019-03-05T23:20:28.279Z,63.92
2019-03-05T23:23:16.216Z,65.24
2019-03-05T23:26:03.845Z,64.81
2019-03-05T23:28:51.366Z,64.88
2019-03-05T23:31:38.587Z,65.23
2019-03-05T23:34:26.423Z,64.78
2019-03-05T23:37:14.152Z,64.40
2019-03-05T23:40:01.782Z,64.76
2019-03-05T23:42:49.716Z,65.51
2019-03-05T23:45:37.242Z,65.00
2019-03-05T23:48:24.975Z,65.02
2019-03-05T23:51:12.100Z,65.36
2019-03-05T23:53:59.858Z,65.19
2019-03-05T23:56:47.657Z,65.29
2019-03-05T23:59:35.080Z,65.16
